^^
Datos históricos de la estación: Murcia-Puente Tocinos
Diario Informe para Mayo 15, 2019 Unidades:  Ingés    Métrico   Ambas
Diario Semanal Mensual Anual
  Máxima: Mínima: Promedio:
Temperatura: 61.9 °F 41.5 °F 50.9 °F
Punto de rocio: 48.4 °F 34.5 °F 41.5 °F
Humedad: 88% 48.1% 72%
Velocidad viento: 6.4mph 0mph 3.6mph
Racha viento: 14mph - -
Viento- - SE
Presión: 30.2 in 30.1 in -
Precipitación: 0 in    
 
 
Tabla de datos para Mayo 15, 2019
Hora Temperatura Punto de rocio Presión Viento Velocidad viento Racha viento Humedad Intensidad lluvia(por hora) Nubes
00:04 50 °F 43.7 °F 30.1 in SSE 2.4 mph 3 mph 79% 0 in
00:09 49.8 °F 43.7 °F 30.1 in SSE 1 mph   79% 0 in
00:14 49.6 °F 43.5 °F 30.1 in Calm     79% 0 in
00:19 49.6 °F 43.3 °F 30.1 in Calm     79% 0 in
00:24 49.5 °F 43.2 °F 30.1 in Calm     79% 0 in
00:29 49.3 °F 43.3 °F 30.1 in Calm     79.9% 0 in
00:34 49.1 °F 43.2 °F 30.1 in Calm     80% 0 in
00:39 48.9 °F 43.2 °F 30.1 in Calm     80.6% 0 in
00:44 48.7 °F 43.2 °F 30.1 in Calm   1.8 mph 81% 0 in
00:49 48.7 °F 43.2 °F 30.1 in Calm   2.3 mph 80.7% 0 in
00:54 48.7 °F 42.8 °F 30.1 in Calm   2.3 mph 80% 0 in
00:59 48.6 °F 42.3 °F 30.1 in Calm   2.9 mph 79% 0 in
01:04 48.4 °F 42.3 °F 30.1 in Calm   3.6 mph 79% 0 in
01:09 48.4 °F 42.3 °F 30.1 in SSE 1.2 mph 4 mph 79% 0 in
01:14 48.2 °F 42.1 °F 30.1 in SSE 2 mph 3 mph 79.1% 0 in
01:19 48 °F 42.1 °F 30.1 in SSE 1.6 mph 2.4 mph 79.4% 0 in
01:24 48 °F 42.1 °F 30.1 in SSE 1.4 mph 2.9 mph 79.7% 0 in
01:29 47.8 °F 42.1 °F 30.1 in SSE 0.6 mph 3 mph 80% 0 in
01:34 47.7 °F 41.9 °F 30.1 in Calm   2.9 mph 80% 0 in
01:39 47.7 °F 41.7 °F 30.1 in Calm   3 mph 80% 0 in
01:44 47.5 °F 41.5 °F 30.1 in Calm   4.3 mph 79.8% 0 in
01:49 47.3 °F 41 °F 30.1 in SSE 1.1 mph 5 mph 79% 0 in
01:54 47.1 °F 40.8 °F 30.1 in SSE 1.8 mph 5 mph 79% 0 in
01:59 46.9 °F 40.5 °F 30.1 in Sur 2.2 mph 5.8 mph 78.2% 0 in
02:04 46.8 °F 40.3 °F 30.1 in Sur 2.4 mph 6 mph 78% 0 in
02:09 46.6 °F 40.1 °F 30.1 in Sur 3.1 mph 6 mph 78% 0 in
02:14 46.6 °F 39.9 °F 30.1 in Sur 3.6 mph 5 mph 77.2% 0 in
02:19 46.6 °F 39.7 °F 30.1 in Sur 3.2 mph 5 mph 77% 0 in
02:24 46.6 °F 39.4 °F 30.1 in Sur 2.9 mph 5 mph 76.2% 0 in
02:29 46.6 °F 39.4 °F 30.1 in Sur 2.9 mph 5 mph 76% 0 in
02:34 46.6 °F 39.4 °F 30.1 in Sur 2.9 mph 5 mph 76% 0 in
02:39 46.6 °F 39.4 °F 30.1 in Sur 2.9 mph 5 mph 76% 0 in
02:44 46.2 °F 39.2 °F 30.1 in Sur 2.9 mph 5 mph 76.1% 0 in
02:49 46 °F 39.2 °F 30.1 in Sur 2.9 mph 5 mph 77% 0 in
02:54 45.9 °F 39.2 °F 30.1 in Sur 2.9 mph 5 mph 77.8% 0 in
02:59 45.7 °F 39.2 °F 30.1 in Sur 3 mph 5.2 mph 78% 0 in
03:04 45.5 °F 39 °F 30.1 in Sur 3.1 mph 5.2 mph 78% 0 in
03:09 45.3 °F 38.8 °F 30.1 in Sur 3.4 mph 6.2 mph 78% 0 in
03:14 45.1 °F 38.8 °F 30.1 in SSE 3.6 mph 6.4 mph 78% 0 in
03:19 45 °F 38.7 °F 30.1 in SSE 3.9 mph 7 mph 78% 0 in
03:24 45 °F 38.5 °F 30.1 in SSE 4 mph 6 mph 78% 0 in
03:29 44.8 °F 38.3 °F 30.1 in Sur 4 mph 6 mph 78% 0 in
03:34 44.8 °F 38.3 °F 30.1 in Sur 4 mph 6 mph 78% 0 in
03:39 44.8 °F 38.3 °F 30.1 in Sur 3.5 mph 5.9 mph 78% 0 in
03:44 44.6 °F 37.9 °F 30.1 in Sur 3.1 mph 6.9 mph 77.2% 0 in
03:49 44.6 °F 37.8 °F 30.1 in Sur 3.8 mph 7 mph 77% 0 in
03:59 44.4 °F 37.8 °F 30.1 in Sur 4.3 mph 5.8 mph 77% 0 in
04:04 44.4 °F 37.8 °F 30.1 in SSE 4.3 mph 6.4 mph 77% 0 in
04:09 44.2 °F 37.6 °F 30.1 in SSE 4.5 mph 7 mph 77% 0 in
04:14 44.2 °F 37.8 °F 30.1 in Sur 4.7 mph 6.9 mph 78% 0 in
04:19 44.1 °F 37.6 °F 30.1 in Sur 4.7 mph 6.9 mph 78% 0 in
04:24 44.1 °F 37.6 °F 30.1 in Sur 4.7 mph 8.1 mph 78% 0 in
04:29 44.1 °F 37.6 °F 30.1 in Sur 5 mph 8.1 mph 78% 0 in
04:34 44.1 °F 37.4 °F 30.1 in Sur 5.2 mph 8 mph 77.5% 0 in
04:39 44.1 °F 37.2 °F 30.1 in Sur 4.9 mph 7 mph 77% 0 in
04:44 44.1 °F 37.2 °F 30.1 in Sur 4.7 mph 7 mph 77% 0 in
04:49 43.9 °F 37 °F 30.1 in SSE 4.7 mph 6.9 mph 77% 0 in
04:54 43.7 °F 37 °F 30.1 in SSE 4.7 mph 8.1 mph 77% 0 in
04:59 43.3 °F 36.7 °F 30.1 in SSE 5 mph 9.2 mph 77.5% 0 in
05:04 42.8 °F 36.5 °F 30.1 in Sur 5.2 mph 9.2 mph 78% 0 in
05:09 42.6 °F 36.5 °F 30.1 in Sur 5.6 mph 9 mph 78.8% 0 in
05:14 42.4 °F 36.3 °F 30.1 in Sur 5.9 mph 8 mph 79% 0 in
05:19 42.4 °F 36.3 °F 30.1 in Sur 5.5 mph 8.1 mph 79% 0 in
05:24 42.4 °F 36.3 °F 30.1 in SSE 5.2 mph 8.1 mph 79% 0 in
05:29 42.4 °F 36.3 °F 30.1 in SSE 5.2 mph 8 mph 79% 0 in
05:34 42.4 °F 36.3 °F 30.1 in Sur 5.2 mph 7 mph 79% 0 in
05:39 42.4 °F 36.3 °F 30.1 in Sur 4.7 mph 7.4 mph 79% 0 in
05:44 42.3 °F 36.1 °F 30.1 in Sur 4.3 mph 7 mph 79% 0 in
05:49 42.3 °F 36.1 °F 30.1 in Sur 4.5 mph 7 mph 79% 0 in
05:54 42.1 °F 36 °F 30.1 in Sur 4.7 mph 7.4 mph 78.7% 0 in
05:59 42.3 °F 35.8 °F 30.1 in Sur 4.7 mph 9.2 mph 77.7% 0 in
06:04 42.3 °F 35.6 °F 30.1 in Sur 4.7 mph 9 mph 77% 0 in
06:09 42.4 °F 35.4 °F 30.1 in Sur 4.7 mph 8 mph 76.4% 0 in
06:14 42.4 °F 35.4 °F 30.1 in Sur 4.7 mph 8.1 mph 76% 0 in
06:19 42.6 °F 35.4 °F 30.1 in SSO 4.7 mph 9.2 mph 75.7% 0 in
06:24 42.6 °F 35.2 °F 30.1 in SSO 4.7 mph 9.2 mph 75% 0 in
06:29 42.8 °F 35.2 °F 30.1 in SSO 5.1 mph 9 mph 74.9% 0 in
06:34 43 °F 35.2 °F 30.1 in SSO 5.4 mph 7.4 mph 74% 0 in
06:39 43.2 °F 35.4 °F 30.1 in SSO 5.4 mph 8.1 mph 74% 0 in
06:44 43.2 °F 35.4 °F 30.1 in SSO 5.4 mph 8 mph 74% 0 in
06:49 43.3 °F 35.6 °F 30.1 in Sur 5.3 mph 7 mph 74% 0 in
06:54 43.2 °F 35.4 °F 30.1 in Sur 5.2 mph 8.1 mph 74% 0 in
06:59 43.2 °F 35.8 °F 30.1 in Sur 5.2 mph 8.1 mph 74.8% 0 in
07:04 43.2 °F 35.8 °F 30.1 in Sur 5.2 mph 8.1 mph 75% 0 in
07:09 43 °F 35.6 °F 30.1 in Sur 5.2 mph 8 mph 75% 0 in
07:14 42.6 °F 35.4 °F 30.1 in Sur 5.2 mph 7 mph 75.3% 0 in
07:19 42.6 °F 35.6 °F 30.1 in Sur 4.7 mph 7 mph 76% 0 in
07:24 42.6 °F 35.6 °F 30.1 in Sur 4.3 mph 6.2 mph 76% 0 in
07:29 42.6 °F 35.6 °F 30.1 in Sur 4.1 mph 6.2 mph 76% 0 in
07:34 42.6 °F 35.6 °F 30.1 in Sur 4 mph 7.4 mph 76% 0 in
07:39 42.4 °F 35.4 °F 30.1 in Sur 4.4 mph 8.1 mph 76% 0 in
07:44 42.4 °F 35.6 °F 30.1 in Sur 4.7 mph 8.7 mph 76.5% 0 in
07:49 42.3 °F 35.6 °F 30.1 in Sur 5.4 mph 9.2 mph 77% 0 in
07:54 42.3 °F 35.6 °F 30.1 in Sur 5.9 mph 8.1 mph 77% 0 in
07:59 42.1 °F 35.4 °F 30.1 in Sur 5.4 mph 8.1 mph 77% 0 in
08:04 42.1 °F 35.4 °F 30.1 in Sur 5.2 mph 8.1 mph 77% 0 in
08:09 41.9 °F 35.2 °F 30.1 in Sur 5.3 mph 8.5 mph 77% 0 in
08:14 41.7 °F 35.1 °F 30.1 in Sur 5.4 mph 9 mph 77% 0 in
08:19 41.7 °F 35.1 °F 30.1 in Sur 5.4 mph 8.1 mph 77% 0 in
08:24 41.5 °F 34.9 °F 30.1 in Sur 5.4 mph 8.1 mph 77% 0 in
08:29 41.5 °F 34.9 °F 30.1 in SSO 5.7 mph 8.1 mph 77% 0 in
08:34 41.5 °F 34.9 °F 30.1 in Sur 5.9 mph 8.7 mph 77% 0 in
08:39 41.5 °F 34.7 °F 30.1 in Sur 5.9 mph 9 mph 76.4% 0 in
08:44 41.5 °F 34.5 °F 30.1 in Sur 5.9 mph 8.1 mph 76% 0 in
08:49 41.5 °F 34.5 °F 30.1 in Sur 5.5 mph 8 mph 76% 0 in
08:54 41.7 °F 34.5 °F 30.1 in Sur 5.2 mph 8.5 mph 75.3% 0 in
08:59 41.9 °F 34.5 °F 30.1 in Sur 5.3 mph 9 mph 75% 0 in
09:04 42.3 °F 34.9 °F 30.1 in Sur 5.4 mph 9.2 mph 75% 0 in
09:09 42.4 °F 35.1 °F 30.1 in Sur 5.7 mph 9 mph 75% 0 in
09:14 42.6 °F 35.2 °F 30.1 in Sur 5.9 mph 9 mph 75% 0 in
09:19 43 °F 35.6 °F 30.1 in Sur 5.5 mph 9.2 mph 74.8% 0 in
09:24 43.2 °F 35.4 °F 30.1 in Sur 5.2 mph 9.2 mph 73.9% 0 in
09:29 43.3 °F 35.2 °F 30.1 in Sur 5.8 mph 9.2 mph 72.9% 0 in
09:34 43.5 °F 35.1 °F 30.2 in Sur 6.2 mph 9 mph 72% 0 in
09:39 43.9 °F 35.2 °F 30.2 in Sur 6 mph 8.1 mph 71.3% 0 in
09:44 44.1 °F 35.2 °F 30.2 in Sur 5.9 mph 9.2 mph 70.8% 0 in
09:49 44.4 °F 35.2 °F 30.2 in Sur 5.6 mph 9.2 mph 70% 0 in
09:54 44.8 °F 35.2 °F 30.2 in Sur 5.4 mph 9 mph 69.4% 0 in
09:59 45 °F 35.2 °F 30.2 in Sur 5.3 mph 8.1 mph 68.4% 0 in
10:04 45.3 °F 35.1 °F 30.2 in Sur 5.2 mph 8.1 mph 67.2% 0 in
10:09 45.9 °F 35.1 °F 30.2 in SSO 4.9 mph 8 mph 66.1% 0 in
10:14 46.2 °F 35.2 °F 30.2 in SSO 4.7 mph 7 mph 65% 0 in
10:19 46.8 °F 35.1 °F 30.2 in SSO 4.3 mph 7 mph 63.6% 0 in
10:24 47.1 °F 35.2 °F 30.2 in SSO 4 mph 8.1 mph 63% 0 in
10:29 47.5 °F 35.2 °F 30.2 in SSO 4.4 mph 8 mph 62.1% 0 in
10:34 47.8 °F 35.1 °F 30.2 in Sur 4.7 mph 7.6 mph 61.2% 0 in
10:39 47.8 °F 34.9 °F 30.2 in SSO 5 mph 8.1 mph 60.9% 0 in
10:44 48.2 °F 35.1 °F 30.2 in SSO 5.2 mph 8 mph 60.6% 0 in
10:49 48.6 °F 35.1 °F 30.2 in Sur 4.9 mph 7.4 mph 59.2% 0 in
10:54 48.9 °F 35.1 °F 30.2 in Sur 4.7 mph 7 mph 58.4% 0 in
10:59 49.5 °F 35.1 °F 30.2 in Sur 4.5 mph 7 mph 57.5% 0 in
11:04 49.6 °F 35.4 °F 30.2 in SSO 4.3 mph 7 mph 57.6% 0 in
11:09 50.2 °F 35.2 °F 30.2 in Sur 4.1 mph 6.9 mph 56.5% 0 in
11:14 50.5 °F 35.2 °F 30.2 in Sur 4 mph 7 mph 56% 0 in
11:19 50.7 °F 35.6 °F 30.2 in Sur 4 mph 6 mph 55.9% 0 in
11:24 51.4 °F 36 °F 30.2 in Sur 4 mph 6 mph 55.2% 0 in
11:29 52 °F 36.1 °F 30.2 in Sur 3.8 mph 6 mph 54.6% 0 in
11:34 52.2 °F 36.3 °F 30.2 in Sur 3.6 mph 6 mph 54.7% 0 in
11:39 52.5 °F 36.3 °F 30.2 in Sur 3.6 mph 6 mph 54% 0 in
11:44 52.9 °F 36.5 °F 30.2 in Sur 3.6 mph 6.2 mph 53.7% 0 in
11:49 53.1 °F 36.3 °F 30.2 in SSO 3.6 mph 6.9 mph 52.9% 0 in
11:54 53.4 °F 36.3 °F 30.2 in Sur 3.6 mph 7 mph 52.3% 0 in
11:59 53.8 °F 36.5 °F 30.2 in Sur 3.6 mph 6.2 mph 52% 0 in
12:04 54 °F 36.5 °F 30.2 in SSO 3.6 mph 6.2 mph 51.4% 0 in
12:09 54.1 °F 36.3 °F 30.2 in Sur 3.6 mph 6 mph 51% 0 in
12:14 54.3 °F 36.5 °F 30.2 in Sur 3.6 mph 6.2 mph 51% 0 in
12:19 54.9 °F 36.7 °F 30.2 in SSO 3.3 mph 6.4 mph 50% 0 in
12:24 55 °F 36.3 °F 30.2 in SO 3.1 mph 6 mph 49% 0 in
12:29 55.2 °F 36.3 °F 30.2 in SO 3 mph 6.9 mph 49% 0 in
12:34 55.6 °F 36.7 °F 30.2 in Sur 2.9 mph 7 mph 49% 0 in
12:39 55.9 °F 37 °F 30.2 in Este 2.6 mph 5.9 mph 48.8% 0 in
12:44 56.5 °F 37 °F 30.2 in SSO 2.4 mph 6 mph 48.1% 0 in
12:49 56.8 °F 37.8 °F 30.2 in SSO 2.1 mph 5 mph 49% 0 in
12:54 57.4 °F 38.3 °F 30.1 in SSO 1.8 mph 5 mph 49% 0 in
12:59 57.9 °F 38.7 °F 30.1 in SSO 1.6 mph 3 mph 48.4% 0 in
13:04 58.6 °F 39.2 °F 30.1 in SSO 1.4 mph 2.4 mph 48.4% 0 in
13:09 59.2 °F 40.3 °F 30.1 in SSO 0.6 mph 4.6 mph 49.6% 0 in
13:14 59.4 °F 41 °F 30.1 in Calm   5 mph 50.6% 0 in
13:19 59.5 °F 43.2 °F 30.1 in NE 1.2 mph 5 mph 54.9% 0 in
13:24 59.7 °F 44.8 °F 30.1 in NE 2 mph 5.8 mph 57.7% 0 in
13:29 59.7 °F 45 °F 30.1 in North 2.2 mph 6 mph 58.2% 0 in
13:34 59.5 °F 45.3 °F 30.1 in NE 2.4 mph 8.1 mph 59% 0 in
13:39 59.7 °F 45.7 °F 30.1 in NE 2.8 mph 8 mph 59.7% 0 in
13:44 59.9 °F 46.6 °F 30.1 in NE 3.1 mph 8.1 mph 61.5% 0 in
13:49 60.1 °F 46.9 °F 30.1 in NE 3.6 mph 8.1 mph 61.9% 0 in
13:54 60.1 °F 46.4 °F 30.1 in NE 4 mph 8.1 mph 60.5% 0 in
13:59 60.3 °F 46.4 °F 30.1 in NE 4 mph 9.7 mph 60.2% 0 in
14:04 60.4 °F 46.4 °F 30.1 in NNE 4 mph 10 mph 60% 0 in
14:09 60.4 °F 46.6 °F 30.1 in NE 4.7 mph 9 mph 60% 0 in
14:14 60.6 °F 46.6 °F 30.1 in ENE 5.2 mph 9.2 mph 59.7% 0 in
14:19 60.6 °F 46.2 °F 30.1 in NE 5.3 mph 10.4 mph 59% 0 in
14:24 60.6 °F 46.2 °F 30.1 in NE 5.4 mph 10.4 mph 59% 0 in
14:29 60.8 °F 46.2 °F 30.1 in NE 5.3 mph 10 mph 58.5% 0 in
14:34 61 °F 46.2 °F 30.1 in ENE 5.2 mph 10 mph 58.1% 0 in
14:39 61.2 °F 46.2 °F 30.1 in ENE 5.3 mph 10 mph 58% 0 in
14:44 61.2 °F 46.2 °F 30.1 in ENE 5.4 mph 10.4 mph 57.8% 0 in
14:49 61.2 °F 45.9 °F 30.1 in NE 5.4 mph 10.4 mph 57.1% 0 in
14:54 61.3 °F 45.7 °F 30.1 in NE 5.4 mph 10.7 mph 56.7% 0 in
14:59 61.3 °F 46 °F 30.1 in NE 5 mph 11 mph 56.8% 0 in
15:04 61.5 °F 45.7 °F 30.1 in NE 4.7 mph 9.7 mph 56% 0 in
15:09 61.3 °F 46 °F 30.1 in NE 5 mph 10 mph 56.9% 0 in
15:14 61.5 °F 46.6 °F 30.1 in NE 5.2 mph 10 mph 58% 0 in
15:19 61.5 °F 46.6 °F 30.1 in NE 5.8 mph 12.7 mph 58% 0 in
15:24 61.5 °F 46.6 °F 30.1 in NE 6.2 mph 13 mph 58.2% 0 in
15:29 61.5 °F 46.6 °F 30.1 in NE 5.7 mph 10.7 mph 58% 0 in
15:34 61.5 °F 46.6 °F 30.1 in Este 5.4 mph 11 mph 58% 0 in
15:39 61.5 °F 46.6 °F 30.1 in NE 5 mph 9.7 mph 58% 0 in
15:44 61.5 °F 46.6 °F 30.1 in ENE 4.7 mph 10 mph 57.9% 0 in
15:49 61.5 °F 46.4 °F 30.1 in NNE 4.5 mph 8 mph 57.5% 0 in
15:54 61.7 °F 46.2 °F 30.1 in ENE 4.3 mph 10.2 mph 57.2% 0 in
15:59 61.7 °F 46.2 °F 30.1 in NNE 4.3 mph 10.4 mph 56.9% 0 in
16:04 61.5 °F 46 °F 30.1 in NE 4.3 mph 10 mph 56.9% 0 in
16:09 61.5 °F 46.4 °F 30.1 in NE 4.3 mph 10 mph 57.4% 0 in
16:14 61.7 °F 46.8 °F 30.1 in NE 4.3 mph 9.2 mph 58% 0 in
16:19 61.9 °F 46.9 °F 30.1 in NE 4.3 mph 9.2 mph 58% 0 in
16:24 61.9 °F 46.9 °F 30.1 in NE 4.3 mph 10.4 mph 58.1% 0 in
16:29 61.7 °F 46.9 °F 30.1 in NE 4.5 mph 13.8 mph 58.2% 0 in
16:34 61.5 °F 46.9 °F 30.1 in NE 4.7 mph 14 mph 58.6% 0 in
16:39 61.3 °F 46.6 °F 30.1 in NE 5.6 mph 10 mph 58.3% 0 in
16:44 61.5 °F 47.1 °F 30.1 in NE 6.2 mph 9 mph 59% 0 in
16:49 61.5 °F 47.3 °F 30.1 in ENE 5.3 mph 8.1 mph 59.6% 0 in
16:54 61.3 °F 47.5 °F 30.1 in NE 4.7 mph 9.7 mph 60.1% 0 in
16:59 61.3 °F 47.7 °F 30.1 in NE 5.2 mph 10 mph 60.8% 0 in
17:04 61.2 °F 47.5 °F 30.1 in ENE 5.4 mph 9.2 mph 61% 0 in
17:09 60.8 °F 47.3 °F 30.1 in NE 5.4 mph 10.4 mph 61% 0 in
17:14 60.6 °F 47.1 °F 30.1 in NE 5.4 mph 10.4 mph 61% 0 in
17:19 60.4 °F 46.9 °F 30.1 in NE 5.9 mph 11.5 mph 61% 0 in
17:24 60.3 °F 46.9 °F 30.1 in NE 6.2 mph 12 mph 61.3% 0 in
17:29 60.3 °F 47.1 °F 30.1 in NE 6.3 mph 10 mph 62% 0 in
17:34 60.1 °F 47.3 °F 30.1 in NE 6.4 mph 9 mph 62.7% 0 in
17:39 59.7 °F 47.1 °F 30.1 in ENE 5.2 mph 8.1 mph 63% 0 in
17:44 59.5 °F 47.1 °F 30.1 in ENE 4.3 mph 8.1 mph 63.4% 0 in
17:49 59.5 °F 47.3 °F 30.1 in NE 3.9 mph 6 mph 64% 0 in
17:54 59.4 °F 47.1 °F 30.1 in NE 3.6 mph 5.4 mph 64% 0 in
17:59 59 °F 47.3 °F 30.1 in NE 3.2 mph 5.2 mph 65% 0 in
18:04 58.8 °F 47.1 °F 30.1 in Este 3.1 mph 5.4 mph 65% 0 in
18:09 58.6 °F 46.9 °F 30.1 in Este 3 mph 6 mph 65% 0 in
18:14 58.5 °F 46.8 °F 30.1 in Este 2.9 mph 5 mph 65.3% 0 in
18:19 58.3 °F 46.9 °F 30.1 in Este 2.4 mph 5 mph 66% 0 in
18:24 57.9 °F 46.6 °F 30.1 in Este 2 mph 5 mph 66% 0 in
18:29 57.9 °F 46.6 °F 30.1 in Este 2.2 mph 4.6 mph 66.2% 0 in
18:34 57.7 °F 46.9 °F 30.1 in Este 2.4 mph 6.2 mph 67.1% 0 in
18:39 57.7 °F 47.3 °F 30.1 in ESE 2.8 mph 6.2 mph 68.4% 0 in
18:44 57.6 °F 47.7 °F 30.1 in Este 3.1 mph 6.2 mph 69.8% 0 in
18:49 57.2 °F 47.7 °F 30.1 in Este 3.4 mph 6 mph 70.5% 0 in
18:54 56.8 °F 47.7 °F 30.1 in Este 3.6 mph 5 mph 71% 0 in
18:59 56.7 °F 47.7 °F 30.1 in Este 2.8 mph 5 mph 71.9% 0 in
19:04 56.5 °F 47.8 °F 30.1 in Este 2.4 mph 5.9 mph 73% 0 in
19:09 56.1 °F 47.8 °F 30.1 in Este 2.8 mph 6.9 mph 73.8% 0 in
19:14 55.9 °F 48 °F 30.1 in Este 3.1 mph 7 mph 74.8% 0 in
19:19 55.8 °F 48.2 °F 30.1 in Este 3.4 mph 6 mph 75.8% 0 in
19:24 55.6 °F 48.2 °F 30.1 in ENE 3.6 mph 5.2 mph 76.1% 0 in
19:29 55.6 °F 48.4 °F 30.1 in ENE 3.2 mph 5 mph 77% 0 in
19:34 55.2 °F 48.2 °F 30.1 in ENE 2.9 mph 5 mph 77% 0 in
19:39 55 °F 48.2 °F 30.1 in ENE 2.6 mph 5 mph 77.5% 0 in
19:44 54.9 °F 47.8 °F 30.1 in ENE 2.4 mph 4.6 mph 77% 0 in
19:49 54.7 °F 47.5 °F 30.1 in NE 2.2 mph 5 mph 77% 0 in
19:54 54.1 °F 47.5 °F 30.1 in NE 2 mph 5 mph 77.8% 0 in
19:59 54 °F 47.3 °F 30.1 in NE 2.2 mph 4 mph 78% 0 in
20:04 53.8 °F 47.3 °F 30.1 in NE 2.4 mph 4.6 mph 79% 0 in
20:09 53.4 °F 47.5 °F 30.1 in North 2.7 mph 5.8 mph 79.9% 0 in
20:14 53.2 °F 47.5 °F 30.1 in NE 2.9 mph 6 mph 80.5% 0 in
20:19 53.1 °F 47.5 °F 30.1 in NE 2.6 mph 5 mph 81% 0 in
20:24 53.1 °F 47.5 °F 30.1 in NNE 2.4 mph 5.2 mph 81.8% 0 in
20:29 52.9 °F 47.5 °F 30.1 in NNE 2.7 mph 5.4 mph 82.2% 0 in
20:34 52.5 °F 47.5 °F 30.1 in NE 2.9 mph 6.2 mph 83% 0 in
20:39 52.3 °F 47.3 °F 30.1 in NNE 3.3 mph 6 mph 83% 0 in
20:44 52.2 °F 47.5 °F 30.1 in NNE 3.6 mph 6 mph 83.8% 0 in
20:49 52.2 °F 47.5 °F 30.1 in NNE 3.2 mph 6.2 mph 84% 0 in
20:54 51.8 °F 47.1 °F 30.1 in NNE 2.9 mph 6 mph 84% 0 in
20:59 51.4 °F 46.9 °F 30.1 in North 2.5 mph 5 mph 84.4% 0 in
21:04 51.3 °F 46.9 °F 30.1 in North 2.4 mph 5 mph 85% 0 in
21:09 51.3 °F 46.9 °F 30.1 in North 1.8 mph 2.3 mph 85% 0 in
21:14 51.1 °F 46.9 °F 30.1 in North 1.4 mph 2.4 mph 85.9% 0 in
21:19 50.9 °F 46.9 °F 30.1 in North 0.6 mph 2 mph 86% 0 in
21:24 50.9 °F 47.1 °F 30.1 in Calm   1 mph 86.8% 0 in
21:29 50.7 °F 47.1 °F 30.1 in Calm     87.1% 0 in
21:34 50.9 °F 47.5 °F 30.1 in Calm     88% 0 in
21:39 51.1 °F 47.7 °F 30.1 in Calm   2.3 mph 88% 0 in
21:44 51.1 °F 47.7 °F 30.1 in Calm   4.6 mph 88% 0 in
21:49 51.1 °F 47.7 °F 30.1 in ENE 1.1 mph 5 mph 88% 0 in
21:54 51.1 °F 47.3 °F 30.1 in Este 1.8 mph 4.6 mph 87.3% 0 in
21:59 50.7 °F 47.3 °F 30.1 in Este 1.9 mph 5 mph 87.8% 0 in
22:04 50.7 °F 47.3 °F 30.1 in Este 2 mph 1 mph 88% 0 in
22:09 50.5 °F 47.1 °F 30.1 in Este 0.8 mph   88% 0 in
22:14 50.5 °F 47.1 °F 30.1 in Calm   3.5 mph 88% 0 in
22:19 50.4 °F 46.9 °F 30.1 in Este 0.9 mph 3.5 mph 88% 0 in
22:24 50.4 °F 46.9 °F 30.1 in Este 1.4 mph 3 mph 88% 0 in
22:29 50.4 °F 46.9 °F 30.1 in Este 0.6 mph 3.6 mph 88% 0 in
22:34 50.4 °F 46.8 °F 30.1 in Calm   4.6 mph 87.6% 0 in
22:39 50.2 °F 46.4 °F 30.1 in Sur 1.4 mph 5 mph 87% 0 in
22:44 49.8 °F 46.2 °F 30.1 in Sur 2.4 mph 5 mph 87% 0 in
22:49 49.8 °F 46 °F 30.1 in Sur 2.4 mph 5 mph 87% 0 in
22:54 49.8 °F 46 °F 30.1 in Sur 2.4 mph 5 mph 87% 0 in
22:59 49.8 °F 46.2 °F 30.1 in Sur 2.7 mph 5 mph 87.5% 0 in
23:04 49.8 °F 46.4 °F 30.1 in SSO 2.9 mph 5.2 mph 88% 0 in
23:09 50 °F 46.2 °F 30.1 in SSO 3 mph 5 mph 87.3% 0 in
23:14 49.8 °F 46.2 °F 30.1 in SSO 3.1 mph 5 mph 87% 0 in
23:19 49.8 °F 46 °F 30.1 in SO 3 mph 6.2 mph 87% 0 in
23:24 49.8 °F 45.9 °F 30.1 in SSO 2.9 mph 6 mph 86.2% 0 in
23:29 49.6 °F 45.7 °F 30.1 in SSO 3.3 mph 6 mph 86% 0 in
23:34 49.6 °F 45.7 °F 30.1 in SSO 3.6 mph 5.2 mph 86% 0 in
23:39 49.6 °F 45.5 °F 30.1 in Sur 3.3 mph 5 mph 86% 0 in
23:44 49.5 °F 45.3 °F 30.1 in SSO 3.1 mph 5.9 mph 86% 0 in
23:49 49.3 °F 45.3 °F 30.1 in SSO 3.4 mph 6 mph 86% 0 in
23:54 49.3 °F 45.1 °F 30.1 in SSO 3.6 mph 6 mph 86% 0 in
23:59 48.9 °F 45 °F 30.1 in Sur 3.1 mph 5 mph 86% 0 in
Murcia-Puente Tocinos, España
Compliments of Weather Underground - 3 mb

La estación de MeteoMurcia.com, publica sus datos en los siguientes proyectos:

Weather Underground PWS IMURCIAP2 Meteoclimatic www.awekas.at

W3Counter
Web Analytics